createdAt,value
2018-05-02T00:01:33.991Z,11.80
2018-05-02T00:04:01.446Z,11.70
2018-05-02T00:06:28.887Z,11.80
2018-05-02T00:08:56.320Z,11.80
2018-05-02T00:11:24.525Z,11.60
2018-05-02T00:13:52.002Z,11.60
2018-05-02T00:16:19.457Z,11.60
2018-05-02T00:18:46.882Z,11.60
2018-05-02T00:21:14.321Z,11.70
2018-05-02T00:23:42.525Z,11.80
2018-05-02T00:26:10.008Z,11.70
2018-05-02T00:28:37.460Z,11.80
2018-05-02T00:31:04.892Z,11.80
2018-05-02T00:33:32.374Z,11.80
2018-05-02T00:35:59.830Z,11.70
2018-05-02T00:38:28.210Z,11.60
2018-05-02T00:40:55.658Z,11.60
2018-05-02T00:43:23.626Z,11.60
2018-05-02T00:45:51.102Z,11.70
2018-05-02T00:48:18.712Z,11.60
2018-05-02T00:50:46.106Z,11.50
2018-05-02T00:53:13.561Z,11.60
2018-05-02T00:55:41.026Z,11.70
2018-05-02T00:58:08.466Z,11.80
2018-05-02T01:00:35.910Z,11.70
2018-05-02T01:03:03.342Z,11.60
2018-05-02T01:05:31.566Z,11.60
2018-05-02T01:07:59.006Z,11.70
2018-05-02T01:10:26.482Z,11.60
2018-05-02T01:12:54.350Z,11.50
2018-05-02T01:15:21.785Z,11.40
2018-05-02T01:17:49.263Z,11.50
2018-05-02T01:20:16.718Z,11.70
2018-05-02T01:22:44.183Z,11.70
2018-05-02T01:25:11.658Z,11.80
2018-05-02T01:27:39.857Z,11.50
2018-05-02T01:30:08.081Z,11.40
2018-05-02T01:32:35.551Z,11.40
2018-05-02T01:35:03.098Z,11.40
2018-05-02T01:37:30.569Z,11.30
2018-05-02T01:39:58.114Z,11.40
2018-05-02T01:42:25.571Z,11.50
2018-05-02T01:44:53.005Z,11.30
2018-05-02T01:47:20.485Z,11.20
2018-05-02T01:49:47.922Z,11.10
2018-05-02T01:52:15.398Z,11.10
2018-05-02T01:54:42.853Z,11.10
2018-05-02T01:57:10.317Z,11.10
2018-05-02T01:59:37.746Z,11.20
2018-05-02T02:02:05.226Z,11.20
2018-05-02T02:04:32.660Z,11.30
2018-05-02T02:07:00.103Z,11.10
2018-05-02T02:09:27.546Z,11.00
2018-05-02T02:11:55.770Z,11.20
2018-05-02T02:14:23.206Z,11.20
2018-05-02T02:16:50.642Z,11.20
2018-05-02T02:19:18.850Z,11.40
2018-05-02T02:21:46.294Z,11.40
2018-05-02T02:24:13.738Z,11.20
2018-05-02T02:26:41.192Z,11.00
2018-05-02T02:29:08.689Z,10.90
2018-05-02T02:31:36.146Z,10.90
2018-05-02T02:34:03.673Z,11.20
2018-05-02T02:36:31.058Z,11.10
2018-05-02T02:38:58.506Z,11.00
2018-05-02T02:41:25.979Z,11.00
2018-05-02T02:43:53.413Z,11.10
2018-05-02T02:46:20.849Z,11.10
2018-05-02T02:48:48.946Z,11.00
2018-05-02T02:51:16.954Z,10.90
2018-05-02T02:53:44.485Z,10.90
2018-05-02T02:56:11.921Z,11.20
2018-05-02T02:58:39.356Z,11.20
2018-05-02T03:01:07.558Z,10.90
2018-05-02T03:03:35.008Z,10.90
2018-05-02T03:06:02.459Z,10.70
2018-05-02T03:08:29.946Z,10.90
2018-05-02T03:10:57.611Z,11.10
2018-05-02T03:13:25.068Z,10.90
2018-05-02T03:15:52.502Z,10.80
2018-05-02T03:18:19.938Z,10.90
2018-05-02T03:20:47.430Z,10.80
2018-05-02T03:23:14.866Z,10.80
2018-05-02T03:25:42.858Z,10.70
2018-05-02T03:28:10.306Z,10.70
2018-05-02T03:30:37.738Z,10.80
2018-05-02T03:33:05.233Z,10.70
2018-05-02T03:35:32.678Z,10.60
2018-05-02T03:38:00.123Z,10.60
2018-05-02T03:40:27.550Z,10.60
2018-05-02T03:42:55.758Z,10.80
2018-05-02T03:45:23.758Z,10.80
2018-05-02T03:47:51.303Z,10.70
2018-05-02T03:50:18.750Z,10.70
2018-05-02T03:52:46.194Z,10.90
2018-05-02T03:55:13.673Z,11.00
2018-05-02T03:57:41.114Z,10.90
2018-05-02T04:00:20.441Z,10.70
2018-05-02T04:02:59.905Z,10.60
2018-05-02T04:05:39.262Z,10.80
2018-05-02T04:08:06.707Z,10.70
2018-05-02T04:10:34.151Z,10.60
2018-05-02T04:13:01.842Z,10.60
2018-05-02T04:15:29.379Z,10.70
2018-05-02T04:17:56.816Z,10.70
2018-05-02T04:20:24.250Z,10.70
2018-05-02T04:22:51.686Z,10.90
2018-05-02T04:25:19.918Z,10.90
2018-05-02T04:27:47.378Z,10.80
2018-05-02T04:30:14.834Z,10.80
2018-05-02T04:32:42.326Z,10.80
2018-05-02T04:35:10.566Z,10.80
2018-05-02T04:37:38.026Z,10.80
2018-05-02T04:40:05.467Z,11.00
2018-05-02T04:42:32.897Z,11.20
2018-05-02T04:45:00.347Z,11.10
2018-05-02T04:47:28.566Z,11.10
2018-05-02T04:49:56.031Z,11.00
2018-05-02T04:52:23.490Z,11.20
2018-05-02T04:54:50.926Z,11.10
2018-05-02T04:57:18.388Z,11.10
2018-05-02T04:59:45.859Z,11.10
2018-05-02T05:02:13.314Z,11.00
2018-05-02T05:04:40.749Z,11.10
2018-05-02T05:07:08.221Z,11.20
2018-05-02T05:09:35.657Z,11.20
2018-05-02T05:12:03.098Z,11.00
2018-05-02T05:14:30.541Z,11.20
2018-05-02T05:16:58.755Z,11.30
2018-05-02T05:19:26.235Z,11.30
2018-05-02T05:21:53.794Z,11.40
2018-05-02T05:24:21.234Z,11.50
2018-05-02T05:26:48.695Z,11.50
2018-05-02T05:29:16.153Z,11.50
2018-05-02T05:31:43.610Z,11.60
2018-05-02T05:34:11.044Z,11.60
2018-05-02T05:36:38.832Z,11.50
2018-05-02T05:39:06.278Z,11.60
2018-05-02T05:41:33.729Z,11.70
2018-05-02T05:44:01.220Z,11.70
2018-05-02T05:46:28.762Z,11.60
2018-05-02T05:48:56.223Z,11.70
2018-05-02T05:51:23.657Z,11.70
2018-05-02T05:53:51.093Z,11.90
2018-05-02T05:56:18.592Z,11.90
2018-05-02T05:58:46.258Z,11.90
2018-05-02T06:01:13.693Z,11.90
2018-05-02T06:03:41.166Z,12.00
2018-05-02T06:06:08.729Z,12.10
2018-05-02T06:08:36.162Z,12.00
2018-05-02T06:11:03.589Z,12.10
2018-05-02T06:13:31.799Z,12.10
2018-05-02T06:15:59.243Z,12.10
2018-05-02T06:18:26.726Z,12.10
2018-05-02T06:20:54.238Z,12.20
2018-05-02T06:23:22.440Z,12.30
2018-05-02T06:25:50.743Z,12.30
2018-05-02T06:28:18.179Z,12.30
2018-05-02T06:30:45.609Z,12.30
2018-05-02T06:33:13.110Z,12.40
2018-05-02T06:35:40.899Z,12.50
2018-05-02T06:38:08.354Z,12.50
2018-05-02T06:40:35.890Z,12.50
2018-05-02T06:43:03.327Z,12.60
2018-05-02T06:45:30.767Z,12.60
2018-05-02T06:47:58.220Z,12.60
2018-05-02T06:50:25.687Z,12.60
2018-05-02T06:52:53.172Z,12.70
2018-05-02T06:55:20.611Z,12.70
2018-05-02T06:57:48.086Z,12.80
2018-05-02T07:00:15.530Z,12.80
2018-05-02T07:02:42.999Z,12.80
2018-05-02T07:05:10.457Z,12.80
2018-05-02T07:07:37.902Z,12.90
2018-05-02T07:10:05.921Z,12.90
2018-05-02T07:12:34.266Z,13.00
2018-05-02T07:15:01.948Z,13.00
2018-05-02T07:17:29.482Z,13.10
2018-05-02T07:19:56.937Z,13.10
2018-05-02T07:22:24.397Z,13.00
2018-05-02T07:24:51.859Z,13.00
2018-05-02T07:27:19.311Z,13.10
2018-05-02T07:29:46.754Z,13.10
2018-05-02T07:32:14.225Z,13.20
2018-05-02T07:34:42.011Z,13.20
2018-05-02T07:37:09.550Z,13.20
2018-05-02T07:39:37.110Z,13.20
2018-05-02T07:42:04.556Z,13.20
2018-05-02T07:44:32.049Z,13.30
2018-05-02T07:46:59.492Z,13.30
2018-05-02T07:49:27.037Z,13.40
2018-05-02T07:51:54.498Z,13.50
2018-05-02T07:54:21.950Z,13.50
2018-05-02T07:56:49.410Z,13.50
2018-05-02T07:59:16.846Z,13.50
2018-05-02T08:01:44.294Z,13.60
2018-05-02T08:04:11.735Z,13.60
2018-05-02T08:06:39.238Z,13.70
2018-05-02T08:09:06.690Z,13.70
2018-05-02T08:11:34.131Z,13.70
2018-05-02T08:14:01.610Z,13.70
2018-05-02T08:16:29.108Z,13.70
2018-05-02T08:18:56.478Z,13.70
2018-05-02T08:21:23.914Z,13.80
2018-05-02T08:23:52.154Z,13.80
2018-05-02T08:26:19.584Z,13.90
2018-05-02T08:28:48.715Z,13.90
2018-05-02T08:31:16.148Z,13.90
2018-05-02T08:33:44.078Z,13.90
2018-05-02T08:36:12.270Z,14.00
2018-05-02T08:38:39.763Z,14.00
2018-05-02T08:41:07.201Z,14.00
2018-05-02T08:43:34.675Z,14.10
2018-05-02T08:46:02.113Z,14.10
2018-05-02T08:48:29.559Z,14.20
2018-05-02T08:50:56.994Z,14.20
2018-05-02T08:53:25.194Z,14.20
2018-05-02T08:55:52.629Z,14.20
2018-05-02T08:58:20.130Z,14.30
2018-05-02T09:00:47.694Z,14.30
2018-05-02T09:03:15.118Z,14.40
2018-05-02T09:05:42.558Z,14.40
2018-05-02T09:08:10.778Z,14.50
2018-05-02T09:10:38.234Z,14.50
2018-05-02T09:13:05.674Z,14.50
2018-05-02T09:15:33.164Z,14.60
2018-05-02T09:18:00.598Z,14.60
2018-05-02T09:20:28.030Z,14.70
2018-05-02T09:22:55.518Z,14.60
2018-05-02T09:25:22.983Z,14.60
2018-05-02T09:27:50.417Z,14.70
2018-05-02T09:30:17.889Z,14.70
2018-05-02T09:32:45.354Z,14.70
2018-05-02T09:35:13.223Z,14.70
2018-05-02T09:37:40.659Z,14.70
2018-05-02T09:40:08.106Z,14.70
2018-05-02T09:42:35.590Z,14.80
2018-05-02T09:45:03.034Z,14.80
2018-05-02T09:47:30.497Z,14.80
2018-05-02T09:49:57.959Z,14.80
2018-05-02T09:52:25.414Z,14.90
2018-05-02T09:54:52.868Z,14.90
2018-05-02T09:57:20.326Z,14.90
2018-05-02T09:59:47.765Z,14.90
2018-05-02T10:02:15.254Z,14.90
2018-05-02T10:04:42.694Z,15.00
2018-05-02T10:07:10.153Z,15.00
2018-05-02T10:09:37.599Z,15.00
2018-05-02T10:12:05.042Z,15.00
2018-05-02T10:14:32.470Z,15.00
2018-05-02T10:17:00.686Z,15.00
2018-05-02T10:19:28.122Z,15.00
2018-05-02T10:21:55.556Z,15.10
2018-05-02T10:24:23.763Z,15.10
2018-05-02T10:26:51.198Z,15.10
2018-05-02T10:29:18.638Z,15.10
2018-05-02T10:31:46.878Z,15.10
2018-05-02T10:34:14.318Z,15.10
2018-05-02T10:36:41.791Z,15.20
2018-05-02T10:39:09.223Z,15.20
2018-05-02T10:41:36.703Z,15.10
2018-05-02T10:44:04.102Z,15.20
2018-05-02T10:46:32.308Z,15.20
2018-05-02T10:48:59.790Z,15.20
2018-05-02T10:51:27.306Z,15.20
2018-05-02T10:53:54.806Z,15.20
2018-05-02T10:56:22.305Z,15.30
2018-05-02T10:58:50.569Z,15.30
2018-05-02T11:01:18.074Z,15.30
2018-05-02T11:03:45.628Z,15.30
2018-05-02T11:06:13.129Z,15.30
2018-05-02T11:08:40.636Z,15.30
2018-05-02T11:11:08.149Z,15.30
2018-05-02T11:13:35.667Z,15.40
2018-05-02T11:16:03.170Z,15.40
2018-05-02T11:18:30.678Z,15.40
2018-05-02T11:20:58.182Z,15.40
2018-05-02T11:23:25.793Z,15.40
2018-05-02T11:25:53.345Z,15.40
2018-05-02T11:28:21.384Z,15.40
2018-05-02T11:30:48.981Z,15.40
2018-05-02T11:33:16.481Z,15.40
2018-05-02T11:35:43.996Z,15.40
2018-05-02T11:38:11.493Z,15.50
2018-05-02T11:40:39.146Z,15.50
2018-05-02T11:43:06.618Z,15.50
2018-05-02T11:45:34.133Z,15.50
2018-05-02T11:48:01.633Z,15.60
2018-05-02T11:50:29.150Z,15.50
2018-05-02T11:52:56.714Z,15.60
2018-05-02T11:55:24.232Z,15.60
2018-05-02T11:57:51.852Z,15.60
2018-05-02T12:00:19.385Z,15.60
2018-05-02T12:02:46.917Z,15.70
2018-05-02T12:05:15.182Z,15.70
2018-05-02T12:07:42.800Z,15.70
2018-05-02T12:10:10.305Z,15.70
2018-05-02T12:12:37.809Z,15.70
2018-05-02T12:15:05.353Z,15.70
2018-05-02T12:17:32.916Z,15.80
2018-05-02T12:20:00.500Z,15.80
2018-05-02T12:22:27.996Z,15.70
2018-05-02T12:24:55.601Z,15.70
2018-05-02T12:27:23.109Z,15.70
2018-05-02T12:29:50.604Z,15.80
2018-05-02T12:32:18.133Z,15.80
2018-05-02T12:34:45.645Z,15.80
2018-05-02T12:37:13.741Z,15.80
2018-05-02T12:39:41.241Z,15.80
2018-05-02T12:42:09.532Z,15.80
2018-05-02T12:44:37.025Z,15.80
2018-05-02T12:47:04.653Z,15.80
2018-05-02T12:49:32.157Z,15.80
2018-05-02T12:51:59.764Z,15.90
2018-05-02T12:54:27.329Z,15.90
2018-05-02T12:56:54.831Z,15.90
2018-05-02T12:59:22.332Z,15.90
2018-05-02T13:01:50.621Z,15.90
2018-05-02T13:04:18.180Z,15.90
2018-05-02T13:06:45.672Z,15.90
2018-05-02T13:09:13.196Z,16.00
2018-05-02T13:11:40.692Z,16.00
2018-05-02T13:14:08.205Z,16.00
2018-05-02T13:16:36.467Z,16.00
2018-05-02T13:19:04.763Z,16.00
2018-05-02T13:21:32.426Z,16.00
2018-05-02T13:23:59.920Z,16.00
2018-05-02T13:26:27.441Z,16.10
2018-05-02T13:28:55.001Z,16.00
2018-05-02T13:31:22.504Z,16.10
2018-05-02T13:33:50.001Z,16.10
2018-05-02T13:36:18.330Z,16.00
2018-05-02T13:38:46.475Z,16.00
2018-05-02T13:41:13.985Z,16.10
2018-05-02T13:43:41.472Z,16.00
2018-05-02T13:46:09.757Z,16.00
2018-05-02T13:48:37.320Z,16.00
2018-05-02T13:51:04.809Z,16.00
2018-05-02T13:53:32.313Z,16.00
2018-05-02T13:56:00.658Z,16.10
2018-05-02T13:58:28.229Z,16.00
2018-05-02T14:00:55.907Z,16.10
2018-05-02T14:03:23.345Z,16.10
2018-05-02T14:05:50.959Z,16.10
2018-05-02T14:08:18.521Z,16.10
2018-05-02T14:10:45.883Z,16.10
2018-05-02T14:13:13.309Z,16.10
2018-05-02T14:15:40.815Z,16.10
2018-05-02T14:18:08.274Z,16.00
2018-05-02T14:20:35.711Z,16.00
2018-05-02T14:23:03.182Z,16.00
2018-05-02T14:25:30.614Z,16.00
2018-05-02T14:27:58.055Z,16.00
2018-05-02T14:30:26.274Z,16.00
2018-05-02T14:32:53.744Z,16.00
2018-05-02T14:35:21.185Z,16.00
2018-05-02T14:37:48.641Z,16.00
2018-05-02T14:40:16.114Z,16.00
2018-05-02T14:42:43.567Z,16.00
2018-05-02T14:45:11.844Z,16.00
2018-05-02T14:47:39.286Z,16.00
2018-05-02T14:50:06.734Z,16.00
2018-05-02T14:52:34.180Z,16.00
2018-05-02T14:55:01.621Z,16.00
2018-05-02T14:57:29.049Z,16.00
2018-05-02T14:59:57.290Z,16.00
2018-05-02T15:02:24.746Z,16.00
2018-05-02T15:04:52.185Z,16.00
2018-05-02T15:07:19.624Z,16.00
2018-05-02T15:09:47.056Z,16.00
2018-05-02T15:12:15.301Z,16.00
2018-05-02T15:14:43.275Z,16.00
2018-05-02T15:17:10.830Z,16.00
2018-05-02T15:19:38.274Z,16.00
2018-05-02T15:22:05.741Z,16.00
2018-05-02T15:24:33.272Z,16.00
2018-05-02T15:27:00.656Z,16.00
2018-05-02T15:29:28.106Z,16.00
2018-05-02T15:31:55.546Z,16.00
2018-05-02T15:34:23.022Z,16.00
2018-05-02T15:36:50.641Z,16.00
2018-05-02T15:39:18.137Z,16.00
2018-05-02T15:41:45.574Z,16.10
2018-05-02T15:44:13.674Z,16.10
2018-05-02T15:46:41.110Z,16.10
2018-05-02T15:49:08.579Z,16.10
2018-05-02T15:51:36.046Z,16.10
2018-05-02T15:54:03.536Z,16.10
2018-05-02T15:56:31.730Z,16.10
2018-05-02T15:58:59.230Z,16.10
2018-05-02T16:01:26.682Z,16.10
2018-05-02T16:03:54.132Z,16.10
2018-05-02T16:06:21.566Z,16.10
2018-05-02T16:08:49.269Z,16.10
2018-05-02T16:11:17.230Z,16.10
2018-05-02T16:13:44.690Z,16.10
2018-05-02T16:16:12.119Z,16.10
2018-05-02T16:18:39.562Z,16.10
2018-05-02T16:21:07.054Z,16.10
2018-05-02T16:23:34.493Z,16.10
2018-05-02T16:26:01.931Z,16.10
2018-05-02T16:28:29.426Z,16.10
2018-05-02T16:30:56.886Z,16.00
2018-05-02T16:33:24.954Z,16.00
2018-05-02T16:35:52.410Z,16.00
2018-05-02T16:38:19.869Z,16.00
2018-05-02T16:40:47.303Z,16.00
2018-05-02T16:43:14.786Z,16.00
2018-05-02T16:45:42.222Z,16.00
2018-05-02T16:48:09.698Z,16.00
2018-05-02T16:50:37.386Z,16.00
2018-05-02T16:53:04.826Z,15.90
2018-05-02T16:55:33.465Z,15.90
2018-05-02T16:58:00.904Z,16.00
2018-05-02T17:00:29.682Z,16.00
2018-05-02T17:02:57.882Z,16.00
2018-05-02T17:05:25.334Z,16.00
2018-05-02T17:07:52.790Z,16.00
2018-05-02T17:10:21.007Z,15.90
2018-05-02T17:12:48.450Z,15.90
2018-05-02T17:15:15.882Z,15.90
2018-05-02T17:17:43.368Z,15.90
2018-05-02T17:20:11.529Z,15.90
2018-05-02T17:22:38.986Z,15.90
2018-05-02T17:25:06.475Z,15.90
2018-05-02T17:27:34.542Z,15.90
2018-05-02T17:30:02.028Z,15.80
2018-05-02T17:32:29.558Z,15.80
2018-05-02T17:34:57.002Z,15.80
2018-05-02T17:37:24.444Z,15.80
2018-05-02T17:39:51.904Z,15.80
2018-05-02T17:42:19.386Z,15.80
2018-05-02T17:44:46.849Z,15.70
2018-05-02T17:47:14.274Z,15.70
2018-05-02T17:49:41.868Z,15.70
2018-05-02T17:52:09.326Z,15.70
2018-05-02T17:54:36.756Z,15.70
2018-05-02T17:57:04.206Z,15.60
2018-05-02T17:59:31.647Z,15.60
2018-05-02T18:01:59.086Z,15.60
2018-05-02T18:04:34.886Z,15.60
2018-05-02T18:07:02.326Z,15.60
2018-05-02T18:09:29.761Z,15.60
2018-05-02T18:11:57.199Z,15.60
2018-05-02T18:14:25.411Z,15.50
2018-05-02T18:16:52.835Z,15.60
2018-05-02T18:19:21.042Z,15.50
2018-05-02T18:21:48.478Z,15.50
2018-05-02T18:24:15.915Z,15.50
2018-05-02T18:26:43.361Z,15.50
2018-05-02T18:29:10.790Z,15.50
2018-05-02T18:31:38.231Z,15.40
2018-05-02T18:34:05.667Z,15.40
2018-05-02T18:36:33.929Z,15.40
2018-05-02T18:39:01.295Z,15.40
2018-05-02T18:41:28.735Z,15.40
2018-05-02T18:43:56.942Z,15.30
2018-05-02T18:46:24.384Z,15.30
2018-05-02T18:48:52.574Z,15.30
2018-05-02T18:51:20.007Z,15.30
2018-05-02T18:53:48.210Z,15.30
2018-05-02T18:56:15.650Z,15.30
2018-05-02T18:58:43.181Z,15.30
2018-05-02T19:01:11.295Z,15.20
2018-05-02T19:03:38.751Z,15.10
2018-05-02T19:06:06.182Z,15.10
2018-05-02T19:08:34.388Z,15.10
2018-05-02T19:11:01.826Z,15.10
2018-05-02T19:13:29.257Z,15.10
2018-05-02T19:15:57.469Z,15.10
2018-05-02T19:18:30.741Z,15.00
2018-05-02T19:20:59.654Z,15.00
2018-05-02T19:23:27.143Z,15.00
2018-05-02T19:26:00.310Z,15.00
2018-05-02T19:28:27.783Z,15.00
2018-05-02T19:31:00.786Z,14.90
2018-05-02T19:33:33.770Z,14.90
2018-05-02T19:36:01.226Z,14.90
2018-05-02T19:38:28.654Z,15.00
2018-05-02T19:41:01.658Z,14.90
2018-05-02T19:43:34.774Z,14.90
2018-05-02T19:46:02.211Z,14.80
2018-05-02T19:48:29.638Z,14.80
2018-05-02T19:51:02.620Z,14.80
2018-05-02T19:53:30.063Z,14.80
2018-05-02T19:55:57.498Z,14.80
2018-05-02T19:58:25.701Z,14.80
2018-05-02T20:00:58.682Z,14.70
2018-05-02T20:03:26.122Z,14.70
2018-05-02T20:05:54.313Z,14.60
2018-05-02T20:08:27.430Z,14.60
2018-05-02T20:11:00.421Z,14.60
2018-05-02T20:13:33.627Z,14.70
2018-05-02T20:16:00.987Z,14.80
2018-05-02T20:18:28.422Z,14.80
2018-05-02T20:20:55.991Z,14.70
2018-05-02T20:23:23.430Z,14.70
2018-05-02T20:25:50.898Z,14.60
2018-05-02T20:28:18.375Z,14.70
2018-05-02T20:30:45.881Z,14.70
2018-05-02T20:33:13.738Z,14.60
2018-05-02T20:35:41.177Z,14.60
2018-05-02T20:38:09.389Z,14.60
2018-05-02T20:40:36.829Z,14.60
2018-05-02T20:43:04.270Z,14.70
2018-05-02T20:45:32.484Z,14.60
2018-05-02T20:47:59.918Z,14.60
2018-05-02T20:50:27.355Z,14.60
2018-05-02T20:52:55.614Z,14.50
2018-05-02T20:55:23.080Z,14.50
2018-05-02T20:57:50.502Z,14.60
2018-05-02T21:00:18.582Z,14.60
2018-05-02T21:02:46.019Z,14.60
2018-05-02T21:05:13.450Z,14.60
2018-05-02T21:07:40.915Z,14.50
2018-05-02T21:10:08.400Z,14.60
2018-05-02T21:12:35.834Z,14.50
2018-05-02T21:15:03.273Z,14.50
2018-05-02T21:17:31.067Z,14.50
2018-05-02T21:19:58.501Z,14.50
2018-05-02T21:22:25.970Z,14.50
2018-05-02T21:24:53.481Z,14.50
2018-05-02T21:27:21.015Z,14.50
2018-05-02T21:29:48.466Z,14.50
2018-05-02T21:32:15.905Z,14.50
2018-05-02T21:34:43.346Z,14.50
2018-05-02T21:37:10.786Z,14.50
2018-05-02T21:39:39.012Z,14.40
2018-05-02T21:42:06.532Z,14.40
2018-05-02T21:44:33.986Z,14.50
2018-05-02T21:47:01.487Z,14.50
2018-05-02T21:49:28.916Z,14.50
2018-05-02T21:51:56.403Z,14.50
2018-05-02T21:54:24.475Z,14.40
2018-05-02T21:56:51.911Z,14.40
2018-05-02T21:59:19.359Z,14.40
2018-05-02T22:01:46.838Z,14.40
2018-05-02T22:04:14.306Z,14.50
2018-05-02T22:06:41.742Z,14.40
2018-05-02T22:09:09.186Z,14.50
2018-05-02T22:11:36.674Z,14.50
2018-05-02T22:14:04.106Z,14.50
2018-05-02T22:16:31.562Z,14.40
2018-05-02T22:18:59.038Z,14.40
2018-05-02T22:21:26.598Z,14.40
2018-05-02T22:23:54.031Z,14.40
2018-05-02T22:26:21.470Z,14.30
2018-05-02T22:28:48.909Z,14.40
2018-05-02T22:31:17.120Z,14.40
2018-05-02T22:33:44.546Z,14.30
2018-05-02T22:36:12.774Z,14.30
2018-05-02T22:38:40.234Z,14.30
2018-05-02T22:41:08.298Z,14.20
2018-05-02T22:43:35.762Z,14.20
2018-05-02T22:46:03.218Z,14.20
2018-05-02T22:48:30.662Z,14.20
2018-05-02T22:50:58.104Z,14.20
2018-05-02T22:53:25.542Z,14.20
2018-05-02T22:55:52.990Z,14.10
2018-05-02T22:58:21.192Z,14.10
2018-05-02T23:00:48.629Z,14.10
2018-05-02T23:03:16.836Z,14.00
2018-05-02T23:05:44.301Z,14.00
2018-05-02T23:08:11.769Z,14.10
2018-05-02T23:10:39.229Z,14.10
2018-05-02T23:13:06.677Z,14.10
2018-05-02T23:15:34.110Z,14.00
2018-05-02T23:18:01.602Z,14.00
2018-05-02T23:20:29.150Z,14.00
2018-05-02T23:22:56.607Z,14.00
2018-05-02T23:25:24.344Z,14.00
2018-05-02T23:27:51.778Z,14.00
2018-05-02T23:30:19.344Z,14.00
2018-05-02T23:32:46.722Z,14.00
2018-05-02T23:35:14.195Z,14.00
2018-05-02T23:37:41.754Z,14.00
2018-05-02T23:40:09.221Z,14.00
2018-05-02T23:42:36.670Z,13.90
2018-05-02T23:45:04.123Z,14.00
2018-05-02T23:47:31.586Z,13.90
2018-05-02T23:49:59.038Z,13.90
2018-05-02T23:52:26.473Z,13.90
2018-05-02T23:54:53.913Z,13.90
2018-05-02T23:57:21.414Z,13.90
2018-05-02T23:59:48.980Z,13.80
